Terminal Aerodrome Forecast
Issued by NWS Bismarck, ND

Home | Current Version | Previous Version | Graphics & Text | Print | Product List | Glossary On
Versions: 1 2 3 4 5 6 7 8 9 10 11 12 13 14 15 16 17
000
FTUS43 KBIS 170530
TAFBIS
TAF
KBIS 170530Z 1706/1806 29007KT P6SM SCT015 BKN025
     FM170800 29005KT P6SM BKN035
     FM171200 VRB03KT P6SM SCT150
     FM171800 21007KT P6SM FEW250
     FM172300 18006KT P6SM SCT200
     FM180100 16006KT P6SM BKN200=

USA.gov is the U.S. government's official web portal to all federal, state and local government web resources and services.